Time;durP1;ratioP1;P1;durP2;ratioP2;P2;SDS_P1;SDS_P2;PMS_P1;PMS_P2;Temp;Humidity;BMP_temperature;BMP_pressure;BME280_temperature;BME280_humidity;BME280_pressure;Samples;Min_cycle;Max_cycle;Signal;HPM_P1;HPM_P2
2021/04/01 00:00:54;;;;;;;20.55;14.57;;;12.90;93.10;;;;;;2529211;22;19998;-72
2021/04/01 00:01:55;;;;;;;19.17;13.32;;;12.90;92.90;;;;;;2529540;22;20006;-72
2021/04/01 00:02:56;;;;;;;12.63;10.45;;;12.90;92.60;;;;;;2528474;22;20002;-72
2021/04/01 00:03:56;;;;;;;18.63;14.18;;;12.90;91.50;;;;;;2528960;23;20350;-71
2021/04/01 00:04:57;;;;;;;22.02;15.88;;;12.90;92.40;;;;;;2529499;22;20318;-71
2021/04/01 00:05:58;;;;;;;19.45;13.88;;;12.90;93.30;;;;;;2529907;22;20008;-71
2021/04/01 00:06:58;;;;;;;16.10;12.52;;;12.90;92.90;;;;;;2529242;23;20041;-72
2021/04/01 00:07:59;;;;;;;17.38;13.63;;;12.80;92.90;;;;;;2529551;23;20078;-71
2021/04/01 00:09:00;;;;;;;21.67;14.90;;;12.90;93.10;;;;;;2529306;22;20635;-71
2021/04/01 00:10:02;;;;;;;22.13;16.02;;;12.80;93.70;;;;;;2579945;23;20019;-72
2021/04/01 00:11:03;;;;;;;20.98;14.73;;;12.80;94.30;;;;;;2578259;23;20035;-72
2021/04/01 00:12:04;;;;;;;20.55;15.55;;;12.80;94.10;;;;;;2529343;22;20017;-72
2021/04/01 00:13:05;;;;;;;22.73;16.70;;;12.80;94.30;;;;;;2528585;23;20101;-72
2021/04/01 00:14:06;;;;;;;15.95;12.10;;;12.80;94.90;;;;;;2529549;22;20406;-72
2021/04/01 00:15:09;;;;;;;16.23;13.52;;;12.80;93.70;;;;;;2529144;23;20515;-72
2021/04/01 00:16:10;;;;;;;16.30;12.38;;;12.80;93.50;;;;;;2529374;23;20006;-72
2021/04/01 00:17:12;;;;;;;17.98;14.00;;;12.70;93.40;;;;;;2528196;23;20311;-72
2021/04/01 00:18:16;;;;;;;13.82;11.75;;;12.80;94.20;;;;;;2528668;23;20453;-72
2021/04/01 00:19:17;;;;;;;18.52;12.90;;;12.70;93.40;;;;;;2528088;23;20084;-72
2021/04/01 00:20:18;;;;;;;17.00;12.43;;;12.70;92.90;;;;;;2528699;23;20002;-72
2021/04/01 00:21:18;;;;;;;18.80;15.60;;;12.70;93.00;;;;;;2579949;23;20008;-71
2021/04/01 00:22:19;;;;;;;17.25;12.35;;;12.80;94.20;;;;;;2579233;23;20004;-71
2021/04/01 00:23:19;;;;;;;21.80;15.98;;;12.70;93.60;;;;;;2529608;22;20089;-72
2021/04/01 00:24:20;;;;;;;20.58;14.65;;;12.70;95.10;;;;;;2528596;23;20037;-72
2021/04/01 00:25:22;;;;;;;17.30;13.15;;;12.70;94.70;;;;;;2579938;23;20019;-72
2021/04/01 00:26:23;;;;;;;25.15;13.35;;;12.70;94.00;;;;;;2579020;23;20042;-72
2021/04/01 00:27:24;;;;;;;15.90;12.25;;;12.70;94.10;;;;;;2528478;23;20002;-71
2021/04/01 00:28:24;;;;;;;21.77;14.07;;;12.70;93.70;;;;;;2527977;23;20006;-71
2021/04/01 00:29:25;;;;;;;15.73;12.23;;;12.70;93.80;;;;;;2528700;23;20014;-72
2021/04/01 00:30:26;;;;;;;16.65;13.05;;;12.70;93.60;;;;;;2528257;23;20042;-72
2021/04/01 00:31:26;;;;;;;16.60;12.82;;;12.70;94.10;;;;;;2529317;23;20006;-72
2021/04/01 00:32:27;;;;;;;13.82;11.93;;;12.70;94.00;;;;;;2528349;22;20098;-73
2021/04/01 00:33:27;;;;;;;20.60;15.48;;;12.70;93.60;;;;;;2529502;22;20077;-72
2021/04/01 00:34:28;;;;;;;24.33;16.45;;;12.70;94.80;;;;;;2528935;22;20006;-72
2021/04/01 00:35:28;;;;;;;15.18;12.75;;;12.70;95.60;;;;;;2529708;22;20024;-72
2021/04/01 00:36:29;;;;;;;21.02;14.27;;;12.60;94.90;;;;;;2529131;22;20010;-72
2021/04/01 00:37:31;;;;;;;20.27;14.85;;;12.60;95.00;;;;;;2529664;22;20010;-71
2021/04/01 00:38:31;;;;;;;20.23;15.98;;;12.60;95.20;;;;;;2529048;23;20002;-72
2021/04/01 00:39:32;;;;;;;17.33;12.88;;;12.60;95.70;;;;;;2529431;22;20025;-72
2021/04/01 00:40:32;;;;;;;17.88;12.52;;;12.60;94.90;;;;;;2529347;22;20006;-71
2021/04/01 00:41:33;;;;;;;17.08;13.07;;;12.60;94.90;;;;;;2529477;22;20030;-71
2021/04/01 00:42:35;;;;;;;16.20;11.73;;;12.60;94.70;;;;;;2528045;22;20558;-72
2021/04/01 00:43:35;;;;;;;15.10;12.13;;;12.60;94.30;;;;;;2529137;23;20654;-72
2021/04/01 00:44:36;;;;;;;20.13;13.20;;;12.60;93.60;;;;;;2528976;23;20013;-72
2021/04/01 00:45:36;;;;;;;22.58;14.35;;;12.60;94.20;;;;;;2528665;23;20014;-72
2021/04/01 00:46:37;;;;;;;19.88;14.13;;;12.60;94.10;;;;;;2529051;22;20006;-71
2021/04/01 00:47:41;;;;;;;15.38;12.82;;;12.60;94.00;;;;;;2529523;22;20079;-71
2021/04/01 00:48:42;;;;;;;17.42;13.07;;;12.60;94.10;;;;;;2579319;23;20487;-71
2021/04/01 00:49:42;;;;;;;18.73;12.23;;;12.60;94.20;;;;;;2579912;23;20392;-71
2021/04/01 00:50:43;;;;;;;16.92;14.18;;;12.60;94.10;;;;;;2529125;22;20037;-71
2021/04/01 00:51:44;;;;;;;19.42;13.98;;;12.60;94.30;;;;;;2529891;22;20372;-71
2021/04/01 00:52:44;;;;;;;16.33;12.93;;;12.60;94.20;;;;;;2578399;23;20058;-72
2021/04/01 00:53:45;;;;;;;23.40;15.98;;;12.60;94.10;;;;;;2579524;23;20380;-72
2021/04/01 00:54:45;;;;;;;17.95;14.10;;;12.50;95.10;;;;;;2529196;22;19999;-72
2021/04/01 00:55:46;;;;;;;17.35;13.20;;;12.50;94.80;;;;;;2529678;22;20002;-72
2021/04/01 00:56:46;;;;;;;15.57;11.55;;;12.60;94.40;;;;;;2528239;23;19998;-72
2021/04/01 00:57:49;;;;;;;17.08;12.15;;;12.50;93.80;;;;;;2528697;23;20063;-71
2021/04/01 00:58:51;;;;;;;15.60;12.38;;;12.50;93.80;;;;;;2579317;23;20015;-72
2021/04/01 00:59:52;;;;;;;14.82;11.25;;;12.50;93.70;;;;;;2578868;23;20002;-71
2021/04/01 01:01:06;;;;;;;15.23;12.55;;;12.50;93.80;;;;;;2529549;22;20013;-71
2021/04/01 01:02:06;;;;;;;15.82;12.40;;;12.50;94.00;;;;;;2528447;23;20010;-71
2021/04/01 01:03:07;;;;;;;16.23;12.32;;;12.50;93.80;;;;;;2527959;23;20060;-72
2021/04/01 01:04:09;;;;;;;17.55;11.93;;;12.40;94.00;;;;;;2529037;23;20016;-71
2021/04/01 01:05:12;;;;;;;21.67;14.48;;;12.40;94.20;;;;;;2528914;23;20002;-71
2021/04/01 01:06:13;;;;;;;17.23;13.23;;;12.40;95.40;;;;;;2529428;22;20002;-71
2021/04/01 01:07:13;;;;;;;19.02;14.05;;;12.40;94.80;;;;;;2528380;23;20037;-71
2021/04/01 01:08:14;;;;;;;22.90;17.98;;;12.40;95.30;;;;;;2516608;23;20075;-71
2021/04/01 01:09:14;;;;;;;18.05;13.77;;;12.40;96.50;;;;;;2579115;23;20000;-71
2021/04/01 01:10:20;;;;;;;22.58;17.58;;;12.40;95.90;;;;;;2529222;23;20025;-72
2021/04/01 01:11:21;;;;;;;19.23;13.63;;;12.40;96.90;;;;;;2529086;23;20468;-72
2021/04/01 01:12:21;;;;;;;16.65;12.52;;;12.40;95.60;;;;;;2528597;22;19998;-72
2021/04/01 01:13:22;;;;;;;16.10;12.48;;;12.40;95.10;;;;;;2528974;22;20490;-71
2021/04/01 01:14:22;;;;;;;16.83;12.40;;;12.40;94.80;;;;;;2529134;22;20354;-71
2021/04/01 01:15:24;;;;;;;19.63;13.00;;;12.30;94.60;;;;;;2529501;22;19998;-71
2021/04/01 01:16:24;;;;;;;20.13;15.85;;;12.30;94.50;;;;;;2528514;23;20036;-71
2021/04/01 01:17:25;;;;;;;18.83;15.30;;;12.40;95.70;;;;;;2528454;23;19998;-71
2021/04/01 01:18:27;;;;;;;20.33;15.52;;;12.40;95.90;;;;;;2529217;22;20442;-72
2021/04/01 01:19:35;;;;;;;19.55;15.43;;;12.40;96.10;;;;;;2529459;22;20002;-72
2021/04/01 01:20:36;;;;;;;25.67;18.65;;;12.30;95.80;;;;;;2528783;23;20005;-71
2021/04/01 01:21:37;;;;;;;21.63;16.42;;;12.30;96.60;;;;;;2529510;22;20002;-71
2021/04/01 01:22:38;;;;;;;21.02;15.52;;;12.30;96.40;;;;;;2527891;22;20026;-71
2021/04/01 01:23:40;;;;;;;19.00;14.20;;;12.30;96.20;;;;;;2529604;23;20014;-71
2021/04/01 01:24:41;;;;;;;22.83;16.40;;;12.30;95.70;;;;;;2529382;22;20002;-72
2021/04/01 01:25:41;;;;;;;19.05;13.07;;;12.30;96.10;;;;;;2529178;22;20069;-72
2021/04/01 01:26:43;;;;;;;19.65;15.07;;;12.30;95.30;;;;;;2528702;22;20009;-72
2021/04/01 01:27:44;;;;;;;26.77;19.73;;;12.30;95.70;;;;;;2529143;23;20013;-72
2021/04/01 01:28:46;;;;;;;24.23;19.02;;;12.30;96.90;;;;;;2529029;22;20028;-72
2021/04/01 01:29:48;;;;;;;25.05;17.58;;;12.30;97.10;;;;;;2529117;23;20002;-72
2021/04/01 01:30:49;;;;;;;27.48;19.73;;;12.30;96.70;;;;;;2528802;22;20016;-72
2021/04/01 01:31:50;;;;;;;23.48;19.48;;;12.30;97.60;;;;;;2529209;23;20006;-72
2021/04/01 01:32:59;;;;;;;29.77;20.70;;;12.30;98.10;;;;;;2528301;23;20052;-72
2021/04/01 01:33:59;;;;;;;29.73;20.75;;;12.30;98.70;;;;;;2529149;23;20006;-72
2021/04/01 01:35:00;;;;;;;24.20;17.00;;;12.30;98.90;;;;;;2529161;22;20548;-72
2021/04/01 01:36:00;;;;;;;28.83;18.55;;;12.30;98.30;;;;;;2529273;22;20009;-71
2021/04/01 01:37:05;;;;;;;20.55;14.63;;;12.30;98.50;;;;;;2528789;22;20014;-71
2021/04/01 01:38:07;;;;;;;20.02;15.23;;;12.30;97.50;;;;;;2525178;22;20306;-72
2021/04/01 01:39:08;;;;;;;24.08;18.90;;;12.30;96.80;;;;;;2528518;23;20132;-72
2021/04/01 01:40:09;;;;;;;26.20;20.17;;;12.30;97.80;;;;;;2528724;23;20001;-71
2021/04/01 01:41:10;;;;;;;30.33;20.67;;;12.30;98.90;;;;;;2529407;23;20002;-71
2021/04/01 01:42:11;;;;;;;25.25;18.70;;;12.30;99.40;;;;;;2528168;22;20433;-71
2021/04/01 01:43:14;;;;;;;27.23;19.90;;;12.20;99.70;;;;;;2529323;22;19998;-71
2021/04/01 01:44:14;;;;;;;26.33;19.00;;;12.30;99.90;;;;;;2528768;23;19998;-72
2021/04/01 01:45:15;;;;;;;20.08;14.90;;;12.30;99.90;;;;;;2529240;22;20002;-71
2021/04/01 01:46:16;;;;;;;21.33;16.10;;;12.30;98.80;;;;;;2529607;23;20009;-72
2021/04/01 01:47:17;;;;;;;23.98;18.55;;;12.30;98.80;;;;;;2529537;22;20029;-72
2021/04/01 01:48:17;;;;;;;23.40;17.50;;;12.30;99.10;;;;;;2529785;22;20045;-72
2021/04/01 01:49:18;;;;;;;31.80;21.55;;;12.30;99.40;;;;;;2529026;23;20013;-72
2021/04/01 01:50:21;;;;;;;22.10;17.45;;;12.30;99.90;;;;;;2529665;22;20001;-72
2021/04/01 01:51:22;;;;;;;28.83;19.05;;;12.30;99.00;;;;;;2529720;23;20048;-72
2021/04/01 01:52:23;;;;;;;28.23;20.58;;;12.30;99.40;;;;;;2528890;23;20059;-72
2021/04/01 01:53:24;;;;;;;24.92;20.00;;;12.30;99.90;;;;;;2529622;22;20367;-72
2021/04/01 01:54:24;;;;;;;26.45;19.48;;;12.30;99.90;;;;;;2529625;22;20115;-72
2021/04/01 01:55:25;;;;;;;28.98;20.40;;;12.30;99.90;;;;;;2529293;22;19994;-71
2021/04/01 01:56:27;;;;;;;24.58;17.90;;;12.30;99.90;;;;;;2580340;23;20016;-72
2021/04/01 01:57:27;;;;;;;28.45;21.20;;;12.30;99.90;;;;;;2579802;23;20535;-72
2021/04/01 01:58:28;;;;;;;34.28;22.30;;;12.30;99.90;;;;;;2529991;22;20376;-72
2021/04/01 01:59:29;;;;;;;29.33;21.63;;;12.30;99.90;;;;;;2529363;22;20002;-72
2021/04/01 02:00:35;;;;;;;28.60;18.70;;;12.30;99.90;;;;;;2529899;23;20322;-72
2021/04/01 02:01:35;;;;;;;32.95;20.92;;;12.30;99.90;;;;;;2531188;23;20021;-72
2021/04/01 02:02:37;;;;;;;28.42;21.15;;;12.30;99.90;;;;;;2530644;23;20002;-72
2021/04/01 02:03:37;;;;;;;29.45;21.30;;;12.30;99.90;;;;;;2530819;23;20010;-71
2021/04/01 02:04:38;;;;;;;27.00;20.05;;;12.30;99.90;;;;;;2531414;22;20453;-71
2021/04/01 02:05:40;;;;;;;30.67;21.75;;;12.30;99.90;;;;;;2531219;22;20029;-71
2021/04/01 02:06:41;;;;;;;24.05;18.65;;;12.30;99.90;;;;;;2530995;23;20006;-72
2021/04/01 02:07:41;;;;;;;27.02;19.70;;;12.30;99.90;;;;;;2531047;22;20002;-71
2021/04/01 02:08:42;;;;;;;31.17;21.77;;;12.30;99.90;;;;;;2531382;22;20016;-71
2021/04/01 02:09:49;;;;;;;26.67;20.02;;;12.30;99.90;;;;;;2531032;22;20002;-71
2021/04/01 02:10:51;;;;;;;27.05;19.63;;;12.30;99.90;;;;;;2531132;22;20010;-71
2021/04/01 02:11:52;;;;;;;25.00;19.05;;;12.30;99.90;;;;;;2531064;23;20081;-71
2021/04/01 02:12:53;;;;;;;28.30;21.05;;;12.30;99.90;;;;;;2530667;22;20002;-71
2021/04/01 02:13:56;;;;;;;29.90;22.33;;;12.30;99.90;;;;;;2531051;23;20020;-71
2021/04/01 02:14:56;;;;;;;31.60;22.30;;;12.30;99.90;;;;;;2530427;22;20503;-71
2021/04/01 02:15:57;;;;;;;28.17;20.70;;;12.30;99.90;;;;;;2531096;22;20360;-71
2021/04/01 02:16:58;;;;;;;30.27;21.85;;;12.30;99.90;;;;;;2530553;23;20010;-71
2021/04/01 02:18:20;;;;;;;26.38;18.70;;;12.30;99.90;;;;;;2530137;23;20005;-71
2021/04/01 02:19:21;;;;;;;27.65;18.95;;;12.30;99.90;;;;;;2531415;23;19998;-72
2021/04/01 02:20:22;;;;;;;36.53;23.25;;;12.30;99.90;;;;;;2531021;23;20002;-71
2021/04/01 02:21:23;;;;;;;30.15;20.40;;;12.30;99.90;;;;;;2531185;22;20002;-71
2021/04/01 02:22:24;;;;;;;31.10;21.15;;;12.30;99.90;;;;;;2530293;23;20002;-72
2021/04/01 02:23:34;;;;;;;29.80;21.88;;;12.30;99.90;;;;;;2581684;23;20008;-72
2021/04/01 02:24:35;;;;;;;20.13;15.20;;;12.30;99.90;;;;;;2574213;23;20012;-72
2021/04/01 02:25:36;;;;;;;31.90;22.63;;;12.30;99.90;;;;;;2531156;22;20012;-71
2021/04/01 02:26:37;;;;;;;26.08;19.15;;;12.30;99.90;;;;;;2530916;23;20009;-71
2021/04/01 02:27:37;;;;;;;30.10;22.17;;;12.40;99.90;;;;;;2531235;22;20010;-71
2021/04/01 02:28:38;;;;;;;34.28;23.23;;;12.30;99.90;;;;;;2531016;22;20002;-71
2021/04/01 02:29:38;;;;;;;34.20;23.33;;;12.30;99.90;;;;;;2531470;22;20460;-71
2021/04/01 02:30:41;;;;;;;31.17;23.50;;;12.30;99.90;;;;;;2531373;22;20017;-71
2021/04/01 02:31:41;;;;;;;38.47;25.20;;;12.30;99.90;;;;;;2531310;23;20009;-72
2021/04/01 02:32:42;;;;;;;31.98;23.40;;;12.30;99.90;;;;;;2580904;23;20506;-72
2021/04/01 02:33:43;;;;;;;31.42;22.70;;;12.30;99.90;;;;;;2581711;23;20039;-72
2021/04/01 02:34:43;;;;;;;33.90;24.25;;;12.30;99.90;;;;;;2531012;23;19998;-71
2021/04/01 02:35:44;;;;;;;33.58;24.35;;;12.30;99.90;;;;;;2531128;22;20002;-71
2021/04/01 02:36:45;;;;;;;31.35;23.40;;;12.30;99.90;;;;;;2530927;23;20329;-72
2021/04/01 02:37:46;;;;;;;31.63;22.73;;;12.40;99.90;;;;;;2531455;23;19999;-72
2021/04/01 02:38:46;;;;;;;28.27;21.58;;;12.40;99.90;;;;;;2530151;23;20029;-72
2021/04/01 02:39:47;;;;;;;24.38;17.88;;;12.40;99.90;;;;;;2518265;23;20003;-72
2021/04/01 02:40:48;;;;;;;25.20;19.25;;;12.40;99.90;;;;;;2581733;23;19999;-71
2021/04/01 02:41:49;;;;;;;22.67;16.38;;;12.40;99.90;;;;;;2531500;22;20437;-71
2021/04/01 02:42:49;;;;;;;30.00;22.35;;;12.40;99.60;;;;;;2530593;22;20338;-71
2021/04/01 02:43:50;;;;;;;34.97;23.73;;;12.40;99.90;;;;;;2531257;22;20029;-71
2021/04/01 02:44:50;;;;;;;35.78;24.35;;;12.30;99.90;;;;;;2531087;22;20055;-71
2021/04/01 02:45:51;;;;;;;41.25;25.90;;;12.40;99.90;;;;;;2531173;22;20358;-71
2021/04/01 02:46:52;;;;;;;36.85;25.60;;;12.30;99.90;;;;;;2530862;22;19998;-71
2021/04/01 02:47:52;;;;;;;34.22;25.05;;;12.40;99.90;;;;;;2531405;22;20076;-71
2021/04/01 02:48:53;;;;;;;38.08;26.58;;;12.40;99.90;;;;;;2530863;22;20028;-71
2021/04/01 02:49:53;;;;;;;32.17;22.25;;;12.40;99.90;;;;;;2530994;22;20006;-71
2021/04/01 02:50:54;;;;;;;34.95;24.35;;;12.40;99.90;;;;;;2531015;22;20036;-71
2021/04/01 02:51:54;;;;;;;27.38;20.42;;;12.30;99.90;;;;;;2531045;22;20001;-71
2021/04/01 02:52:55;;;;;;;32.45;20.48;;;12.40;99.90;;;;;;2530769;22;20026;-71
2021/04/01 02:53:56;;;;;;;32.58;21.95;;;12.40;99.90;;;;;;2531030;22;20002;-71
2021/04/01 02:54:56;;;;;;;41.80;26.65;;;12.40;99.90;;;;;;2531123;22;20081;-71
2021/04/01 02:55:57;;;;;;;37.53;25.00;;;12.30;99.90;;;;;;2530838;22;19998;-71
2021/04/01 02:56:57;;;;;;;32.47;23.23;;;12.40;99.90;;;;;;2531422;22;20002;-71
2021/04/01 02:57:58;;;;;;;34.20;24.95;;;12.40;99.90;;;;;;2530992;22;19998;-71
2021/04/01 02:58:58;;;;;;;34.75;25.38;;;12.40;99.90;;;;;;2581621;23;20058;-71
2021/04/01 03:00:05;;;;;;;37.72;26.25;;;12.40;99.90;;;;;;2581820;23;20003;-71
2021/04/01 03:01:08;;;;;;;41.22;27.55;;;12.40;99.90;;;;;;2531173;22;20006;-71
2021/04/01 03:02:09;;;;;;;36.58;25.85;;;12.40;99.90;;;;;;2528900;23;20002;-72
2021/04/01 03:03:20;;;;;;;36.20;25.95;;;12.30;99.90;;;;;;2529715;23;20002;-71
2021/04/01 03:04:20;;;;;;;39.50;27.38;;;12.40;99.90;;;;;;2580557;23;20027;-72
2021/04/01 03:05:21;;;;;;;36.28;26.15;;;12.30;99.90;;;;;;2572343;23;20076;-72
2021/04/01 03:06:22;;;;;;;34.90;25.05;;;12.30;99.90;;;;;;2529542;22;20452;-71
2021/04/01 03:07:22;;;;;;;32.38;23.55;;;12.30;99.90;;;;;;2528403;22;20418;-71
2021/04/01 03:08:24;;;;;;;35.28;25.35;;;12.40;99.90;;;;;;2529671;22;20019;-71
2021/04/01 03:09:24;;;;;;;37.30;27.42;;;12.40;99.90;;;;;;2529730;23;20341;-71
2021/04/01 03:10:26;;;;;;;43.75;28.05;;;12.40;99.90;;;;;;2529632;22;20006;-71
2021/04/01 03:11:26;;;;;;;40.72;27.23;;;12.40;99.90;;;;;;2529400;22;20005;-71
2021/04/01 03:12:27;;;;;;;39.08;26.33;;;12.30;99.90;;;;;;2528729;22;20009;-71
2021/04/01 03:13:27;;;;;;;39.85;28.02;;;12.40;99.90;;;;;;2529575;22;20002;-71
2021/04/01 03:14:28;;;;;;;38.88;26.27;;;12.40;99.90;;;;;;2529381;22;20334;-71
2021/04/01 03:15:29;;;;;;;35.38;23.52;;;12.30;99.90;;;;;;2580011;23;20441;-71
2021/04/01 03:16:29;;;;;;;40.10;28.27;;;12.30;99.90;;;;;;2579682;23;20111;-71
2021/04/01 03:17:30;;;;;;;42.15;26.35;;;12.40;99.90;;;;;;2529160;23;20056;-71
2021/04/01 03:18:31;;;;;;;41.67;27.20;;;12.40;99.90;;;;;;2579708;23;20008;-71
2021/04/01 03:19:31;;;;;;;39.58;27.67;;;12.40;99.90;;;;;;2580115;23;20444;-72
2021/04/01 03:20:32;;;;;;;41.28;27.33;;;12.40;99.90;;;;;;2529408;22;20082;-72
2021/04/01 03:21:33;;;;;;;39.55;28.13;;;12.40;99.90;;;;;;2579861;23;20340;-72
2021/04/01 03:22:34;;;;;;;41.85;28.02;;;12.40;99.90;;;;;;2579183;23;20003;-72
2021/04/01 03:23:34;;;;;;;40.75;27.70;;;12.40;99.90;;;;;;2529606;23;20128;-72
2021/04/01 03:24:35;;;;;;;40.85;28.75;;;12.40;99.90;;;;;;2528936;22;20429;-72
2021/04/01 03:25:35;;;;;;;41.28;28.70;;;12.40;99.90;;;;;;2529617;22;20005;-72
2021/04/01 03:26:36;;;;;;;44.72;30.80;;;12.40;99.90;;;;;;2529807;22;20002;-72
2021/04/01 03:27:37;;;;;;;40.35;27.27;;;12.40;99.90;;;;;;2529207;22;20005;-72
2021/04/01 03:28:38;;;;;;;43.60;28.58;;;12.40;99.90;;;;;;2529141;23;20018;-72
2021/04/01 03:29:38;;;;;;;40.55;28.27;;;12.40;99.90;;;;;;2528608;23;20005;-72
2021/04/01 03:30:55;;;;;;;43.55;28.63;;;12.40;99.90;;;;;;2528607;23;20039;-71
2021/04/01 03:31:56;;;;;;;41.75;28.83;;;12.40;99.90;;;;;;2529240;22;20006;-72
2021/04/01 03:32:56;;;;;;;44.83;29.50;;;12.40;99.90;;;;;;2528992;22;20032;-72
2021/04/01 03:33:57;;;;;;;43.75;29.45;;;12.40;99.90;;;;;;2579669;23;20005;-71
2021/04/01 03:34:58;;;;;;;43.28;30.70;;;12.40;99.90;;;;;;2579633;23;20079;-71
2021/04/01 03:36:00;;;;;;;48.22;31.15;;;12.40;99.90;;;;;;2529872;22;20001;-72
2021/04/01 03:37:00;;;;;;;44.63;30.83;;;12.40;99.90;;;;;;2528975;23;20229;-72
2021/04/01 03:38:03;;;;;;;42.47;30.52;;;12.40;99.90;;;;;;2529102;22;20089;-72
2021/04/01 03:39:04;;;;;;;41.35;29.25;;;12.40;99.90;;;;;;2529294;22;20119;-72
2021/04/01 03:40:07;;;;;;;44.60;30.83;;;12.40;99.90;;;;;;2529434;22;20475;-72
2021/04/01 03:41:07;;;;;;;46.63;31.05;;;12.50;99.90;;;;;;2529291;23;20012;-72
2021/04/01 03:42:08;;;;;;;43.90;30.05;;;12.50;99.90;;;;;;2529114;22;20009;-72
2021/04/01 03:43:08;;;;;;;47.58;31.50;;;12.50;99.90;;;;;;2529376;22;20398;-72
2021/04/01 03:44:09;;;;;;;41.13;28.90;;;12.50;99.90;;;;;;2529547;22;20009;-72
2021/04/01 03:45:11;;;;;;;46.38;30.48;;;12.50;99.90;;;;;;2528598;23;20038;-72
2021/04/01 03:46:13;;;;;;;46.97;30.50;;;12.50;99.90;;;;;;2528415;23;20012;-72
2021/04/01 03:47:14;;;;;;;44.55;29.75;;;12.50;99.90;;;;;;2529038;23;20009;-72
2021/04/01 03:48:14;;;;;;;43.85;29.88;;;12.50;99.90;;;;;;2528961;22;20086;-72
2021/04/01 03:49:15;;;;;;;44.42;30.67;;;12.50;99.90;;;;;;2529364;22;20410;-71
2021/04/01 03:50:15;;;;;;;52.03;31.95;;;12.50;99.90;;;;;;2529601;22;20047;-71
2021/04/01 03:51:16;;;;;;;52.38;32.33;;;12.50;99.90;;;;;;2529508;22;20476;-71
2021/04/01 03:52:16;;;;;;;49.28;31.65;;;12.50;99.90;;;;;;2528878;22;20002;-72
2021/04/01 03:53:17;;;;;;;47.80;31.00;;;12.60;99.90;;;;;;2529571;22;20073;-72
2021/04/01 03:54:17;;;;;;;55.47;33.78;;;12.50;99.90;;;;;;2529712;22;19998;-71
2021/04/01 03:55:38;;;;;;;53.55;31.63;;;12.50;99.90;;;;;;2529375;22;19998;-72
2021/04/01 03:56:38;;;;;;;;;;;12.60;99.90;;;;;;2529850;22;20405;-71
2021/04/01 03:57:40;;;;;;;49.55;32.05;;;12.40;99.90;;;;;;2528763;23;19905;-72
2021/04/01 03:58:52;;;;;;;44.60;30.58;;;12.50;99.90;;;;;;2580004;23;20000;-72
2021/04/01 04:00:14;;;;;;;52.38;32.35;;;12.50;99.90;;;;;;2570320;23;20377;-72
2021/04/01 04:05:05;;;;;;;50.03;31.83;;;12.50;99.90;;;;;;2534021;22;20013;-72
2021/04/01 04:08:55;;;;;;;46.15;30.52;;;12.50;99.90;;;;;;2529364;23;20030;-72
2021/04/01 04:14:40;;;;;;;49.33;31.42;;;12.50;99.90;;;;;;2579417;23;20036;-71
2021/04/01 04:15:41;;;;;;;46.75;31.40;;;12.60;99.90;;;;;;2573619;23;20007;-72
2021/04/01 04:16:42;;;;;;;47.28;31.25;;;12.60;99.90;;;;;;2529270;22;20012;-72
2021/04/01 04:17:43;;;;;;;47.92;33.60;;;12.60;99.90;;;;;;2529093;22;19997;-72
2021/04/01 04:18:44;;;;;;;51.90;32.28;;;12.60;99.90;;;;;;2529788;22;20397;-72
2021/04/01 04:19:44;;;;;;;47.35;31.17;;;12.60;99.90;;;;;;2529510;22;20022;-72
2021/04/01 04:20:45;;;;;;;50.42;32.95;;;12.60;99.90;;;;;;2528618;23;20006;-72
2021/04/01 04:21:45;;;;;;;46.58;31.25;;;12.60;99.90;;;;;;2528417;23;19993;-72
2021/04/01 04:22:49;;;;;;;49.25;31.52;;;12.60;99.90;;;;;;2528330;23;20433;-72
2021/04/01 04:23:50;;;;;;;44.03;31.52;;;12.60;99.90;;;;;;2529324;23;20088;-72
2021/04/01 04:24:51;;;;;;;50.90;31.92;;;12.60;99.90;;;;;;2529049;23;20368;-72
2021/04/01 04:25:54;;;;;;;48.30;32.13;;;12.60;99.90;;;;;;2529713;23;20006;-72
2021/04/01 04:26:57;;;;;;;44.30;29.67;;;12.60;99.90;;;;;;2529468;23;20052;-72
2021/04/01 04:28:06;;;;;;;43.33;28.70;;;12.60;99.90;;;;;;2529832;23;20326;-72
2021/04/01 04:29:07;;;;;;;40.15;27.67;;;12.70;99.90;;;;;;2529217;23;20017;-72
2021/04/01 04:30:08;;;;;;;50.90;32.17;;;12.60;99.90;;;;;;2529886;22;20085;-72
2021/04/01 04:31:09;;;;;;;45.03;29.65;;;12.70;99.90;;;;;;2529374;23;20010;-72
2021/04/01 04:32:10;;;;;;;48.28;31.00;;;12.70;99.90;;;;;;2528589;23;20014;-72
2021/04/01 04:33:11;;;;;;;53.13;32.60;;;12.70;99.90;;;;;;2528172;22;20006;-72
2021/04/01 04:34:11;;;;;;;47.75;31.73;;;12.70;99.90;;;;;;2528649;23;20009;-72
2021/04/01 04:35:12;;;;;;;50.78;32.10;;;12.70;99.90;;;;;;2528913;22;20425;-72
2021/04/01 04:36:13;;;;;;;45.25;31.33;;;12.70;99.90;;;;;;2529612;22;20002;-72
2021/04/01 04:37:13;;;;;;;45.92;31.27;;;12.70;99.90;;;;;;2529258;22;19998;-72
2021/04/01 04:38:14;;;;;;;46.83;32.17;;;12.70;99.90;;;;;;2529365;22;20006;-72
2021/04/01 04:39:14;;;;;;;45.35;31.13;;;12.70;99.90;;;;;;2528991;22;20010;-72
2021/04/01 04:40:16;;;;;;;50.63;32.75;;;12.70;99.90;;;;;;2529884;22;20009;-72
2021/04/01 04:41:16;;;;;;;48.15;32.10;;;12.70;99.90;;;;;;2529348;23;20016;-72
2021/04/01 04:42:17;;;;;;;45.85;30.75;;;12.70;99.90;;;;;;2528317;22;20009;-72
2021/04/01 04:43:18;;;;;;;51.28;31.42;;;12.70;99.90;;;;;;2579893;23;20086;-72
2021/04/01 04:44:18;;;;;;;47.80;31.05;;;12.70;99.90;;;;;;2579414;23;20004;-72
2021/04/01 04:45:19;;;;;;;48.22;30.63;;;12.70;99.90;;;;;;2529441;23;20441;-71
2021/04/01 04:46:19;;;;;;;44.65;28.77;;;12.70;99.90;;;;;;2529373;22;20002;-72
2021/04/01 04:47:20;;;;;;;54.05;32.05;;;12.70;99.90;;;;;;2529730;22;20006;-72
2021/04/01 04:48:21;;;;;;;48.45;30.25;;;12.70;99.90;;;;;;2529459;22;20002;-72
2021/04/01 04:49:22;;;;;;;45.05;30.70;;;12.70;99.90;;;;;;2530005;22;20013;-72
2021/04/01 04:50:22;;;;;;;45.17;30.67;;;12.70;99.90;;;;;;2528869;23;20006;-72
2021/04/01 04:51:23;;;;;;;48.63;30.85;;;12.70;99.90;;;;;;2529418;23;20010;-72
2021/04/01 04:52:24;;;;;;;47.78;30.27;;;12.70;99.90;;;;;;2527530;23;20092;-72
2021/04/01 04:53:25;;;;;;;44.97;29.33;;;12.70;99.90;;;;;;2528890;23;20021;-72
2021/04/01 04:54:29;;;;;;;44.47;29.35;;;12.80;99.90;;;;;;2529258;23;20317;-71
2021/04/01 04:55:30;;;;;;;42.53;29.20;;;12.80;99.90;;;;;;2529912;23;20029;-71
2021/04/01 04:56:32;;;;;;;45.95;29.70;;;12.80;99.90;;;;;;2529533;22;20001;-72
2021/04/01 04:59:10;;;;;;;47.33;29.98;;;12.80;99.90;;;;;;2555511;23;20001;-72
2021/04/01 05:05:00;;;;;;;48.05;32.35;;;12.70;99.90;;;;;;2529829;23;20014;-71
2021/04/01 05:06:01;;;;;;;46.25;30.50;;;12.70;99.90;;;;;;2529574;22;20010;-71
2021/04/01 05:07:01;;;;;;;48.15;30.70;;;12.70;99.90;;;;;;2529348;23;20006;-71
2021/04/01 05:08:02;;;;;;;45.38;29.80;;;12.70;99.90;;;;;;2529976;22;20006;-71
2021/04/01 05:09:03;;;;;;;50.08;31.33;;;12.70;99.90;;;;;;2529735;23;20045;-72
2021/04/01 05:10:04;;;;;;;45.85;30.58;;;12.70;99.90;;;;;;2529951;23;20041;-72
2021/04/01 05:11:05;;;;;;;43.90;31.20;;;12.70;99.90;;;;;;2528894;23;20006;-71
2021/04/01 05:12:06;;;;;;;44.28;28.58;;;12.70;99.90;;;;;;2516486;23;20371;-71
2021/04/01 05:13:11;;;;;;;50.35;30.83;;;12.70;99.90;;;;;;2579437;23;20436;-71
2021/04/01 05:14:11;;;;;;;45.45;30.25;;;12.60;99.90;;;;;;2576909;23;20007;-71
2021/04/01 05:15:12;;;;;;;46.08;29.45;;;12.60;99.90;;;;;;2530019;22;20078;-72
2021/04/01 05:16:13;;;;;;;39.00;24.98;;;12.60;99.90;;;;;;2529314;23;19998;-72
2021/04/01 05:17:22;;;;;;;45.42;30.30;;;12.60;99.90;;;;;;2528652;23;20020;-72
2021/04/01 05:19:24;;;;;;;47.22;30.23;;;12.60;99.90;;;;;;2529550;22;20052;-72
2021/04/01 05:20:25;;;;;;;45.28;28.17;;;12.60;99.90;;;;;;2529211;23;20422;-72
2021/04/01 05:23:07;;;;;;;32.78;21.88;;;12.60;99.90;;;;;;2533057;22;20831;-72
2021/04/01 05:24:06;;;;;;;42.40;25.77;;;12.50;99.90;;;;;;2529226;23;20477;-72
2021/04/01 05:25:08;;;;;;;32.10;22.98;;;12.50;99.90;;;;;;2528774;23;20055;-72
2021/04/01 05:29:01;;;;;;;47.13;29.10;;;12.50;99.90;;;;;;2538701;23;20041;-72
2021/04/01 05:30:02;;;;;;;47.72;28.85;;;12.50;99.90;;;;;;2541782;23;20013;-72
2021/04/01 05:31:04;;;;;;;37.78;25.67;;;12.40;99.90;;;;;;2541490;23;20010;-72
2021/04/01 05:32:05;;;;;;;46.30;29.15;;;12.40;99.90;;;;;;2579099;23;20424;-72
2021/04/01 05:33:06;;;;;;;43.60;28.92;;;12.40;99.90;;;;;;2529637;23;20368;-72
2021/04/01 05:34:07;;;;;;;44.88;30.00;;;12.40;99.90;;;;;;2529150;23;20434;-72
2021/04/01 05:35:12;;;;;;;47.72;30.85;;;12.40;99.90;;;;;;2529529;23;20327;-72
2021/04/01 05:36:19;;;;;;;49.17;27.98;;;12.40;99.90;;;;;;2529296;23;20414;-72